sensor_id;sensor_type;location;lat;lon;timestamp;P1;durP1;ratioP1;P2;durP2;ratioP2
18716;SDS011;9487;50.892;6.906;2023-07-31T00:00:19;8.83;;;4.40;;
18716;SDS011;9487;50.892;6.906;2023-07-31T00:02:47;7.43;;;3.67;;
18716;SDS011;9487;50.892;6.906;2023-07-31T00:05:15;8.00;;;4.27;;
18716;SDS011;9487;50.892;6.906;2023-07-31T00:07:42;7.30;;;3.90;;
18716;SDS011;9487;50.892;6.906;2023-07-31T00:10:09;6.20;;;3.63;;
18716;SDS011;9487;50.892;6.906;2023-07-31T00:12:38;7.87;;;3.73;;
18716;SDS011;9487;50.892;6.906;2023-07-31T00:15:06;7.77;;;4.07;;
18716;SDS011;9487;50.892;6.906;2023-07-31T00:17:33;6.87;;;3.93;;
18716;SDS011;9487;50.892;6.906;2023-07-31T00:20:00;9.13;;;5.00;;
18716;SDS011;9487;50.892;6.906;2023-07-31T00:22:27;8.63;;;4.47;;
18716;SDS011;9487;50.892;6.906;2023-07-31T00:24:54;11.37;;;4.83;;
18716;SDS011;9487;50.892;6.906;2023-07-31T00:27:22;12.00;;;5.60;;
18716;SDS011;9487;50.892;6.906;2023-07-31T00:29:50;8.40;;;4.30;;
18716;SDS011;9487;50.892;6.906;2023-07-31T00:32:17;7.70;;;4.20;;
18716;SDS011;9487;50.892;6.906;2023-07-31T00:34:43;8.00;;;4.10;;
18716;SDS011;9487;50.892;6.906;2023-07-31T00:37:10;7.53;;;3.43;;
18716;SDS011;9487;50.892;6.906;2023-07-31T00:39:37;10.70;;;4.00;;
18716;SDS011;9487;50.892;6.906;2023-07-31T00:42:04;6.00;;;3.40;;
18716;SDS011;9487;50.892;6.906;2023-07-31T00:44:31;7.20;;;3.00;;
18716;SDS011;9487;50.892;6.906;2023-07-31T00:47:00;5.93;;;3.00;;
18716;SDS011;9487;50.892;6.906;2023-07-31T00:49:27;5.23;;;3.10;;
18716;SDS011;9487;50.892;6.906;2023-07-31T00:51:55;4.70;;;3.27;;
18716;SDS011;9487;50.892;6.906;2023-07-31T00:54:23;5.17;;;2.87;;
18716;SDS011;9487;50.892;6.906;2023-07-31T00:56:50;6.67;;;3.00;;
18716;SDS011;9487;50.892;6.906;2023-07-31T00:59:20;5.37;;;3.17;;
18716;SDS011;9487;50.892;6.906;2023-07-31T01:01:48;5.93;;;3.23;;
18716;SDS011;9487;50.892;6.906;2023-07-31T01:04:17;6.03;;;3.30;;
18716;SDS011;9487;50.892;6.906;2023-07-31T01:06:48;5.13;;;2.90;;
18716;SDS011;9487;50.892;6.906;2023-07-31T01:09:23;5.90;;;2.83;;
18716;SDS011;9487;50.892;6.906;2023-07-31T01:12:01;5.83;;;2.97;;
18716;SDS011;9487;50.892;6.906;2023-07-31T01:14:30;4.97;;;2.87;;
18716;SDS011;9487;50.892;6.906;2023-07-31T01:16:57;6.27;;;3.03;;
18716;SDS011;9487;50.892;6.906;2023-07-31T01:19:26;4.10;;;3.13;;
18716;SDS011;9487;50.892;6.906;2023-07-31T01:21:57;4.80;;;2.97;;
18716;SDS011;9487;50.892;6.906;2023-07-31T01:24:43;4.47;;;3.10;;
18716;SDS011;9487;50.892;6.906;2023-07-31T01:27:25;8.57;;;3.10;;
18716;SDS011;9487;50.892;6.906;2023-07-31T01:29:56;5.87;;;3.07;;
18716;SDS011;9487;50.892;6.906;2023-07-31T01:32:35;8.03;;;3.23;;
18716;SDS011;9487;50.892;6.906;2023-07-31T01:35:05;4.60;;;3.10;;
18716;SDS011;9487;50.892;6.906;2023-07-31T01:37:33;6.10;;;3.20;;
18716;SDS011;9487;50.892;6.906;2023-07-31T01:40:00;4.83;;;2.80;;
18716;SDS011;9487;50.892;6.906;2023-07-31T01:42:28;4.87;;;2.80;;
18716;SDS011;9487;50.892;6.906;2023-07-31T01:44:56;4.73;;;3.07;;
18716;SDS011;9487;50.892;6.906;2023-07-31T01:47:24;4.10;;;3.00;;
18716;SDS011;9487;50.892;6.906;2023-07-31T01:49:51;4.80;;;3.07;;
18716;SDS011;9487;50.892;6.906;2023-07-31T01:52:18;4.83;;;2.90;;
18716;SDS011;9487;50.892;6.906;2023-07-31T01:54:45;6.00;;;3.50;;
18716;SDS011;9487;50.892;6.906;2023-07-31T01:57:12;7.40;;;3.63;;
18716;SDS011;9487;50.892;6.906;2023-07-31T01:59:41;6.07;;;3.77;;
18716;SDS011;9487;50.892;6.906;2023-07-31T02:02:09;7.23;;;3.57;;
18716;SDS011;9487;50.892;6.906;2023-07-31T02:04:36;8.87;;;3.50;;
18716;SDS011;9487;50.892;6.906;2023-07-31T02:07:04;6.77;;;3.40;;
18716;SDS011;9487;50.892;6.906;2023-07-31T02:09:31;5.40;;;3.40;;
18716;SDS011;9487;50.892;6.906;2023-07-31T02:11:59;5.97;;;3.77;;
18716;SDS011;9487;50.892;6.906;2023-07-31T02:14:27;6.10;;;3.37;;
18716;SDS011;9487;50.892;6.906;2023-07-31T02:16:55;8.30;;;3.93;;
18716;SDS011;9487;50.892;6.906;2023-07-31T02:19:22;6.57;;;3.70;;
18716;SDS011;9487;50.892;6.906;2023-07-31T02:21:49;8.07;;;3.50;;
18716;SDS011;9487;50.892;6.906;2023-07-31T02:24:15;7.03;;;3.13;;
18716;SDS011;9487;50.892;6.906;2023-07-31T02:26:42;7.50;;;3.50;;
18716;SDS011;9487;50.892;6.906;2023-07-31T02:29:09;6.93;;;3.13;;
18716;SDS011;9487;50.892;6.906;2023-07-31T02:31:36;6.53;;;3.50;;
18716;SDS011;9487;50.892;6.906;2023-07-31T02:34:07;8.23;;;3.93;;
18716;SDS011;9487;50.892;6.906;2023-07-31T02:36:33;6.10;;;3.63;;
18716;SDS011;9487;50.892;6.906;2023-07-31T02:39:00;7.10;;;3.57;;
18716;SDS011;9487;50.892;6.906;2023-07-31T02:41:27;7.10;;;3.77;;
18716;SDS011;9487;50.892;6.906;2023-07-31T02:43:54;6.90;;;3.70;;
18716;SDS011;9487;50.892;6.906;2023-07-31T02:46:21;6.63;;;3.47;;
18716;SDS011;9487;50.892;6.906;2023-07-31T02:48:49;5.70;;;3.40;;
18716;SDS011;9487;50.892;6.906;2023-07-31T02:51:17;6.03;;;3.80;;
18716;SDS011;9487;50.892;6.906;2023-07-31T02:53:46;7.67;;;3.73;;
18716;SDS011;9487;50.892;6.906;2023-07-31T02:56:13;7.93;;;3.67;;
18716;SDS011;9487;50.892;6.906;2023-07-31T02:58:40;7.13;;;3.53;;
18716;SDS011;9487;50.892;6.906;2023-07-31T03:01:08;7.43;;;3.87;;
18716;SDS011;9487;50.892;6.906;2023-07-31T03:03:36;8.03;;;4.33;;
18716;SDS011;9487;50.892;6.906;2023-07-31T03:06:03;6.87;;;3.77;;
18716;SDS011;9487;50.892;6.906;2023-07-31T03:08:31;5.13;;;3.33;;
18716;SDS011;9487;50.892;6.906;2023-07-31T03:10:58;6.83;;;3.47;;
18716;SDS011;9487;50.892;6.906;2023-07-31T03:13:25;7.73;;;3.90;;
18716;SDS011;9487;50.892;6.906;2023-07-31T03:15:52;8.40;;;4.73;;
18716;SDS011;9487;50.892;6.906;2023-07-31T03:18:19;6.23;;;3.97;;
18716;SDS011;9487;50.892;6.906;2023-07-31T03:20:47;6.83;;;3.60;;
18716;SDS011;9487;50.892;6.906;2023-07-31T03:23:14;6.57;;;3.60;;
18716;SDS011;9487;50.892;6.906;2023-07-31T03:25:52;7.23;;;3.70;;
18716;SDS011;9487;50.892;6.906;2023-07-31T03:28:22;5.20;;;3.90;;
18716;SDS011;9487;50.892;6.906;2023-07-31T03:30:49;6.97;;;3.97;;
18716;SDS011;9487;50.892;6.906;2023-07-31T03:33:16;6.40;;;3.50;;
18716;SDS011;9487;50.892;6.906;2023-07-31T03:35:44;7.47;;;4.10;;
18716;SDS011;9487;50.892;6.906;2023-07-31T03:38:11;6.73;;;3.83;;
18716;SDS011;9487;50.892;6.906;2023-07-31T03:40:38;8.23;;;4.07;;
18716;SDS011;9487;50.892;6.906;2023-07-31T03:43:06;5.37;;;3.83;;
18716;SDS011;9487;50.892;6.906;2023-07-31T03:45:33;8.57;;;4.40;;
18716;SDS011;9487;50.892;6.906;2023-07-31T03:48:00;5.97;;;4.17;;
18716;SDS011;9487;50.892;6.906;2023-07-31T03:50:27;7.60;;;3.63;;
18716;SDS011;9487;50.892;6.906;2023-07-31T03:52:54;9.07;;;4.67;;
18716;SDS011;9487;50.892;6.906;2023-07-31T03:55:21;10.97;;;4.50;;
18716;SDS011;9487;50.892;6.906;2023-07-31T03:57:48;6.00;;;4.10;;
18716;SDS011;9487;50.892;6.906;2023-07-31T04:00:16;10.73;;;4.63;;
18716;SDS011;9487;50.892;6.906;2023-07-31T04:02:43;7.40;;;4.47;;
18716;SDS011;9487;50.892;6.906;2023-07-31T04:05:10;7.30;;;4.03;;
18716;SDS011;9487;50.892;6.906;2023-07-31T04:07:37;7.83;;;4.47;;
18716;SDS011;9487;50.892;6.906;2023-07-31T04:10:04;5.73;;;4.10;;
18716;SDS011;9487;50.892;6.906;2023-07-31T04:12:31;6.23;;;3.90;;
18716;SDS011;9487;50.892;6.906;2023-07-31T04:14:59;7.83;;;4.57;;
18716;SDS011;9487;50.892;6.906;2023-07-31T04:17:27;6.47;;;4.20;;
18716;SDS011;9487;50.892;6.906;2023-07-31T04:19:54;6.07;;;4.27;;
18716;SDS011;9487;50.892;6.906;2023-07-31T04:22:20;6.10;;;3.93;;
18716;SDS011;9487;50.892;6.906;2023-07-31T04:24:47;5.47;;;4.07;;
18716;SDS011;9487;50.892;6.906;2023-07-31T04:27:14;5.53;;;4.07;;
18716;SDS011;9487;50.892;6.906;2023-07-31T04:29:41;5.23;;;4.10;;
18716;SDS011;9487;50.892;6.906;2023-07-31T04:32:10;8.23;;;3.77;;
18716;SDS011;9487;50.892;6.906;2023-07-31T04:34:39;5.87;;;4.50;;
18716;SDS011;9487;50.892;6.906;2023-07-31T04:37:06;5.77;;;4.50;;
18716;SDS011;9487;50.892;6.906;2023-07-31T04:39:33;5.77;;;4.00;;
18716;SDS011;9487;50.892;6.906;2023-07-31T04:42:00;6.83;;;4.27;;
18716;SDS011;9487;50.892;6.906;2023-07-31T04:44:27;5.87;;;3.97;;
18716;SDS011;9487;50.892;6.906;2023-07-31T04:46:54;4.93;;;3.70;;
18716;SDS011;9487;50.892;6.906;2023-07-31T04:49:21;5.70;;;3.87;;
18716;SDS011;9487;50.892;6.906;2023-07-31T04:51:49;6.80;;;4.30;;
18716;SDS011;9487;50.892;6.906;2023-07-31T04:54:16;6.10;;;4.03;;
18716;SDS011;9487;50.892;6.906;2023-07-31T04:56:43;5.53;;;4.07;;
18716;SDS011;9487;50.892;6.906;2023-07-31T04:59:10;5.83;;;4.00;;
18716;SDS011;9487;50.892;6.906;2023-07-31T05:01:37;6.80;;;3.97;;
18716;SDS011;9487;50.892;6.906;2023-07-31T05:04:04;5.47;;;3.63;;
18716;SDS011;9487;50.892;6.906;2023-07-31T05:06:31;5.43;;;3.50;;
18716;SDS011;9487;50.892;6.906;2023-07-31T05:08:59;5.63;;;3.57;;
18716;SDS011;9487;50.892;6.906;2023-07-31T05:11:26;4.83;;;3.60;;
18716;SDS011;9487;50.892;6.906;2023-07-31T05:13:53;6.13;;;4.13;;
18716;SDS011;9487;50.892;6.906;2023-07-31T05:16:21;7.50;;;4.87;;
18716;SDS011;9487;50.892;6.906;2023-07-31T05:18:48;8.07;;;4.27;;
18716;SDS011;9487;50.892;6.906;2023-07-31T05:21:15;6.20;;;4.07;;
18716;SDS011;9487;50.892;6.906;2023-07-31T05:23:43;6.73;;;4.97;;
18716;SDS011;9487;50.892;6.906;2023-07-31T05:26:12;8.43;;;7.43;;
18716;SDS011;9487;50.892;6.906;2023-07-31T05:28:39;5.33;;;3.87;;
18716;SDS011;9487;50.892;6.906;2023-07-31T05:31:06;6.53;;;4.37;;
18716;SDS011;9487;50.892;6.906;2023-07-31T05:33:33;6.60;;;4.63;;
18716;SDS011;9487;50.892;6.906;2023-07-31T05:36:00;4.77;;;4.17;;
18716;SDS011;9487;50.892;6.906;2023-07-31T05:38:28;8.00;;;4.77;;
18716;SDS011;9487;50.892;6.906;2023-07-31T05:40:55;5.40;;;3.63;;
18716;SDS011;9487;50.892;6.906;2023-07-31T05:43:25;7.73;;;4.47;;
18716;SDS011;9487;50.892;6.906;2023-07-31T05:45:54;4.77;;;3.47;;
18716;SDS011;9487;50.892;6.906;2023-07-31T05:48:21;5.53;;;4.00;;
18716;SDS011;9487;50.892;6.906;2023-07-31T05:50:48;5.57;;;3.67;;
18716;SDS011;9487;50.892;6.906;2023-07-31T05:53:17;6.80;;;4.27;;
18716;SDS011;9487;50.892;6.906;2023-07-31T05:55:44;5.00;;;4.00;;
18716;SDS011;9487;50.892;6.906;2023-07-31T05:58:11;6.23;;;4.03;;
18716;SDS011;9487;50.892;6.906;2023-07-31T06:00:39;5.10;;;3.93;;
18716;SDS011;9487;50.892;6.906;2023-07-31T06:03:08;5.53;;;3.93;;
18716;SDS011;9487;50.892;6.906;2023-07-31T06:05:35;6.13;;;4.00;;
18716;SDS011;9487;50.892;6.906;2023-07-31T06:08:02;6.13;;;3.80;;
18716;SDS011;9487;50.892;6.906;2023-07-31T06:10:29;4.43;;;4.00;;
18716;SDS011;9487;50.892;6.906;2023-07-31T06:12:56;5.57;;;4.20;;
18716;SDS011;9487;50.892;6.906;2023-07-31T06:15:23;5.23;;;3.73;;
18716;SDS011;9487;50.892;6.906;2023-07-31T06:17:52;5.23;;;4.13;;
18716;SDS011;9487;50.892;6.906;2023-07-31T06:20:19;4.23;;;3.63;;
18716;SDS011;9487;50.892;6.906;2023-07-31T06:22:46;4.47;;;4.00;;
18716;SDS011;9487;50.892;6.906;2023-07-31T06:25:13;4.93;;;3.80;;
18716;SDS011;9487;50.892;6.906;2023-07-31T06:27:41;5.77;;;4.23;;
18716;SDS011;9487;50.892;6.906;2023-07-31T06:30:10;7.57;;;4.03;;
18716;SDS011;9487;50.892;6.906;2023-07-31T06:32:38;6.67;;;4.53;;
18716;SDS011;9487;50.892;6.906;2023-07-31T06:35:07;5.90;;;4.40;;
18716;SDS011;9487;50.892;6.906;2023-07-31T06:37:34;7.07;;;4.67;;
18716;SDS011;9487;50.892;6.906;2023-07-31T06:40:01;5.97;;;4.27;;
18716;SDS011;9487;50.892;6.906;2023-07-31T06:42:30;5.70;;;3.77;;
18716;SDS011;9487;50.892;6.906;2023-07-31T06:44:57;7.37;;;4.40;;
18716;SDS011;9487;50.892;6.906;2023-07-31T06:47:24;5.50;;;3.97;;
18716;SDS011;9487;50.892;6.906;2023-07-31T06:49:51;5.63;;;3.77;;
18716;SDS011;9487;50.892;6.906;2023-07-31T06:52:19;8.10;;;4.50;;
18716;SDS011;9487;50.892;6.906;2023-07-31T06:54:59;6.47;;;4.07;;
18716;SDS011;9487;50.892;6.906;2023-07-31T06:57:28;5.83;;;4.50;;
18716;SDS011;9487;50.892;6.906;2023-07-31T06:59:54;5.23;;;4.20;;
18716;SDS011;9487;50.892;6.906;2023-07-31T07:02:21;4.53;;;3.67;;
18716;SDS011;9487;50.892;6.906;2023-07-31T07:04:48;5.60;;;4.10;;
18716;SDS011;9487;50.892;6.906;2023-07-31T07:07:16;5.90;;;4.37;;
18716;SDS011;9487;50.892;6.906;2023-07-31T07:09:44;5.80;;;4.20;;
18716;SDS011;9487;50.892;6.906;2023-07-31T07:12:11;4.73;;;4.03;;
18716;SDS011;9487;50.892;6.906;2023-07-31T07:14:38;5.37;;;3.93;;
18716;SDS011;9487;50.892;6.906;2023-07-31T07:17:05;6.73;;;4.40;;
18716;SDS011;9487;50.892;6.906;2023-07-31T07:19:32;7.90;;;5.40;;
18716;SDS011;9487;50.892;6.906;2023-07-31T07:21:59;4.80;;;4.20;;
18716;SDS011;9487;50.892;6.906;2023-07-31T07:24:27;6.10;;;4.47;;
18716;SDS011;9487;50.892;6.906;2023-07-31T07:26:58;6.87;;;4.97;;
18716;SDS011;9487;50.892;6.906;2023-07-31T07:29:27;8.33;;;4.33;;
18716;SDS011;9487;50.892;6.906;2023-07-31T07:31:54;7.37;;;4.17;;
18716;SDS011;9487;50.892;6.906;2023-07-31T07:34:22;6.03;;;4.47;;
18716;SDS011;9487;50.892;6.906;2023-07-31T07:36:49;6.20;;;4.20;;
18716;SDS011;9487;50.892;6.906;2023-07-31T07:39:15;6.47;;;4.20;;
18716;SDS011;9487;50.892;6.906;2023-07-31T07:41:42;7.23;;;4.33;;
18716;SDS011;9487;50.892;6.906;2023-07-31T07:44:11;7.40;;;4.47;;
18716;SDS011;9487;50.892;6.906;2023-07-31T07:46:38;4.83;;;4.07;;
18716;SDS011;9487;50.892;6.906;2023-07-31T07:49:05;7.00;;;4.60;;
18716;SDS011;9487;50.892;6.906;2023-07-31T07:51:32;5.33;;;4.50;;
18716;SDS011;9487;50.892;6.906;2023-07-31T07:53:59;7.60;;;5.33;;
18716;SDS011;9487;50.892;6.906;2023-07-31T07:56:26;6.60;;;4.57;;
18716;SDS011;9487;50.892;6.906;2023-07-31T07:58:53;5.77;;;4.60;;
18716;SDS011;9487;50.892;6.906;2023-07-31T08:01:22;5.80;;;3.87;;
18716;SDS011;9487;50.892;6.906;2023-07-31T08:03:49;7.60;;;3.70;;
18716;SDS011;9487;50.892;6.906;2023-07-31T08:06:16;5.85;;;4.03;;
18716;SDS011;9487;50.892;6.906;2023-07-31T08:08:43;6.40;;;3.90;;
18716;SDS011;9487;50.892;6.906;2023-07-31T08:11:10;7.00;;;3.87;;
18716;SDS011;9487;50.892;6.906;2023-07-31T08:13:37;4.47;;;3.87;;
18716;SDS011;9487;50.892;6.906;2023-07-31T08:16:04;5.20;;;3.77;;
18716;SDS011;9487;50.892;6.906;2023-07-31T08:18:32;5.80;;;3.67;;
18716;SDS011;9487;50.892;6.906;2023-07-31T08:21:00;9.20;;;3.80;;
18716;SDS011;9487;50.892;6.906;2023-07-31T08:23:28;5.07;;;3.27;;
18716;SDS011;9487;50.892;6.906;2023-07-31T08:25:55;5.83;;;3.77;;
18716;SDS011;9487;50.892;6.906;2023-07-31T08:28:22;5.03;;;3.70;;
18716;SDS011;9487;50.892;6.906;2023-07-31T08:30:49;5.90;;;3.63;;
18716;SDS011;9487;50.892;6.906;2023-07-31T08:33:16;4.73;;;3.67;;
18716;SDS011;9487;50.892;6.906;2023-07-31T08:35:44;4.53;;;3.80;;
18716;SDS011;9487;50.892;6.906;2023-07-31T08:38:11;4.33;;;3.70;;
18716;SDS011;9487;50.892;6.906;2023-07-31T08:40:38;4.40;;;3.70;;
18716;SDS011;9487;50.892;6.906;2023-07-31T08:43:05;4.83;;;3.90;;
18716;SDS011;9487;50.892;6.906;2023-07-31T08:45:35;4.30;;;3.60;;
18716;SDS011;9487;50.892;6.906;2023-07-31T08:48:02;5.17;;;3.67;;
18716;SDS011;9487;50.892;6.906;2023-07-31T08:50:29;5.30;;;3.60;;
18716;SDS011;9487;50.892;6.906;2023-07-31T08:52:58;5.23;;;3.63;;
18716;SDS011;9487;50.892;6.906;2023-07-31T08:55:25;5.47;;;3.93;;
18716;SDS011;9487;50.892;6.906;2023-07-31T08:57:53;5.10;;;4.00;;
18716;SDS011;9487;50.892;6.906;2023-07-31T09:00:21;4.80;;;3.17;;
18716;SDS011;9487;50.892;6.906;2023-07-31T09:02:52;3.33;;;3.00;;
18716;SDS011;9487;50.892;6.906;2023-07-31T09:05:23;3.93;;;3.27;;
18716;SDS011;9487;50.892;6.906;2023-07-31T09:07:52;4.77;;;3.00;;
18716;SDS011;9487;50.892;6.906;2023-07-31T09:10:22;4.93;;;3.20;;
18716;SDS011;9487;50.892;6.906;2023-07-31T09:12:50;6.50;;;3.93;;
18716;SDS011;9487;50.892;6.906;2023-07-31T09:15:18;4.57;;;3.67;;
18716;SDS011;9487;50.892;6.906;2023-07-31T09:17:46;4.57;;;3.80;;
18716;SDS011;9487;50.892;6.906;2023-07-31T09:20:14;4.23;;;3.67;;
18716;SDS011;9487;50.892;6.906;2023-07-31T09:22:42;4.77;;;3.23;;
18716;SDS011;9487;50.892;6.906;2023-07-31T09:25:16;3.93;;;3.40;;
18716;SDS011;9487;50.892;6.906;2023-07-31T09:27:49;4.40;;;3.20;;
18716;SDS011;9487;50.892;6.906;2023-07-31T09:30:17;4.97;;;3.00;;
18716;SDS011;9487;50.892;6.906;2023-07-31T09:32:45;5.60;;;3.50;;
18716;SDS011;9487;50.892;6.906;2023-07-31T09:35:14;4.30;;;3.10;;
18716;SDS011;9487;50.892;6.906;2023-07-31T09:37:49;3.57;;;3.07;;
18716;SDS011;9487;50.892;6.906;2023-07-31T09:40:30;4.00;;;3.03;;
18716;SDS011;9487;50.892;6.906;2023-07-31T09:42:59;5.00;;;3.50;;
18716;SDS011;9487;50.892;6.906;2023-07-31T09:45:27;3.80;;;2.97;;
18716;SDS011;9487;50.892;6.906;2023-07-31T09:47:55;6.73;;;3.30;;
18716;SDS011;9487;50.892;6.906;2023-07-31T09:50:25;3.50;;;2.80;;
18716;SDS011;9487;50.892;6.906;2023-07-31T09:52:54;3.37;;;2.90;;
18716;SDS011;9487;50.892;6.906;2023-07-31T09:55:21;3.97;;;2.60;;
18716;SDS011;9487;50.892;6.906;2023-07-31T09:57:48;4.20;;;2.77;;
18716;SDS011;9487;50.892;6.906;2023-07-31T10:00:18;5.47;;;2.70;;
18716;SDS011;9487;50.892;6.906;2023-07-31T10:02:47;2.73;;;2.40;;
18716;SDS011;9487;50.892;6.906;2023-07-31T10:05:17;4.07;;;2.80;;
18716;SDS011;9487;50.892;6.906;2023-07-31T10:07:47;2.70;;;2.47;;
18716;SDS011;9487;50.892;6.906;2023-07-31T10:10:20;3.30;;;2.20;;
18716;SDS011;9487;50.892;6.906;2023-07-31T10:12:48;4.37;;;2.80;;
18716;SDS011;9487;50.892;6.906;2023-07-31T10:15:17;3.10;;;2.57;;
18716;SDS011;9487;50.892;6.906;2023-07-31T10:17:45;4.83;;;3.13;;
18716;SDS011;9487;50.892;6.906;2023-07-31T10:20:14;4.57;;;2.80;;
18716;SDS011;9487;50.892;6.906;2023-07-31T10:22:42;3.07;;;2.70;;
18716;SDS011;9487;50.892;6.906;2023-07-31T10:25:11;3.17;;;2.60;;
18716;SDS011;9487;50.892;6.906;2023-07-31T10:27:38;3.60;;;2.50;;
18716;SDS011;9487;50.892;6.906;2023-07-31T10:30:08;3.93;;;2.70;;
18716;SDS011;9487;50.892;6.906;2023-07-31T10:32:40;4.80;;;2.60;;
18716;SDS011;9487;50.892;6.906;2023-07-31T10:35:09;3.60;;;2.60;;
18716;SDS011;9487;50.892;6.906;2023-07-31T10:37:38;4.17;;;2.60;;
18716;SDS011;9487;50.892;6.906;2023-07-31T10:40:09;5.47;;;2.83;;
18716;SDS011;9487;50.892;6.906;2023-07-31T10:42:38;3.13;;;2.50;;
18716;SDS011;9487;50.892;6.906;2023-07-31T10:45:13;3.07;;;2.10;;
18716;SDS011;9487;50.892;6.906;2023-07-31T10:47:57;3.17;;;2.37;;
18716;SDS011;9487;50.892;6.906;2023-07-31T10:50:25;2.37;;;2.13;;
18716;SDS011;9487;50.892;6.906;2023-07-31T10:52:53;3.00;;;2.00;;
18716;SDS011;9487;50.892;6.906;2023-07-31T10:55:28;3.13;;;2.13;;
18716;SDS011;9487;50.892;6.906;2023-07-31T10:57:56;2.10;;;1.80;;
18716;SDS011;9487;50.892;6.906;2023-07-31T11:00:25;2.17;;;1.77;;
18716;SDS011;9487;50.892;6.906;2023-07-31T11:03:10;2.87;;;1.70;;
18716;SDS011;9487;50.892;6.906;2023-07-31T11:05:46;2.00;;;1.80;;
18716;SDS011;9487;50.892;6.906;2023-07-31T11:08:19;1.87;;;1.57;;
18716;SDS011;9487;50.892;6.906;2023-07-31T11:10:48;2.67;;;1.60;;
18716;SDS011;9487;50.892;6.906;2023-07-31T11:13:17;1.90;;;1.60;;
18716;SDS011;9487;50.892;6.906;2023-07-31T11:15:44;1.50;;;1.30;;
18716;SDS011;9487;50.892;6.906;2023-07-31T11:18:12;1.83;;;1.33;;
18716;SDS011;9487;50.892;6.906;2023-07-31T11:20:40;2.30;;;1.37;;
18716;SDS011;9487;50.892;6.906;2023-07-31T11:23:08;3.50;;;1.50;;
18716;SDS011;9487;50.892;6.906;2023-07-31T11:25:36;1.40;;;1.30;;
18716;SDS011;9487;50.892;6.906;2023-07-31T11:28:04;2.37;;;1.60;;
18716;SDS011;9487;50.892;6.906;2023-07-31T11:30:32;2.60;;;1.67;;
18716;SDS011;9487;50.892;6.906;2023-07-31T11:33:00;1.50;;;1.30;;
18716;SDS011;9487;50.892;6.906;2023-07-31T11:35:31;3.03;;;1.40;;
18716;SDS011;9487;50.892;6.906;2023-07-31T11:37:58;1.37;;;1.20;;
18716;SDS011;9487;50.892;6.906;2023-07-31T11:40:25;1.20;;;1.10;;
18716;SDS011;9487;50.892;6.906;2023-07-31T11:42:54;1.20;;;0.93;;
18716;SDS011;9487;50.892;6.906;2023-07-31T11:45:24;1.13;;;1.03;;
18716;SDS011;9487;50.892;6.906;2023-07-31T11:47:52;1.10;;;1.00;;
18716;SDS011;9487;50.892;6.906;2023-07-31T11:50:20;1.10;;;1.00;;
18716;SDS011;9487;50.892;6.906;2023-07-31T11:52:51;1.53;;;0.97;;
18716;SDS011;9487;50.892;6.906;2023-07-31T11:55:22;1.00;;;0.90;;
18716;SDS011;9487;50.892;6.906;2023-07-31T11:57:49;1.10;;;1.00;;
18716;SDS011;9487;50.892;6.906;2023-07-31T12:00:17;1.43;;;0.90;;
18716;SDS011;9487;50.892;6.906;2023-07-31T12:02:44;1.10;;;1.00;;
18716;SDS011;9487;50.892;6.906;2023-07-31T12:05:11;1.20;;;0.90;;
18716;SDS011;9487;50.892;6.906;2023-07-31T12:07:45;1.90;;;1.33;;
18716;SDS011;9487;50.892;6.906;2023-07-31T12:10:25;1.50;;;1.30;;
18716;SDS011;9487;50.892;6.906;2023-07-31T12:12:56;1.47;;;1.37;;
18716;SDS011;9487;50.892;6.906;2023-07-31T12:15:32;2.53;;;1.00;;
18716;SDS011;9487;50.892;6.906;2023-07-31T12:18:04;1.80;;;1.00;;
18716;SDS011;9487;50.892;6.906;2023-07-31T12:20:31;1.40;;;1.30;;
18716;SDS011;9487;50.892;6.906;2023-07-31T12:22:59;1.30;;;1.20;;
18716;SDS011;9487;50.892;6.906;2023-07-31T12:25:31;1.20;;;1.10;;
18716;SDS011;9487;50.892;6.906;2023-07-31T12:28:04;1.73;;;1.20;;
18716;SDS011;9487;50.892;6.906;2023-07-31T12:30:36;1.87;;;1.67;;
18716;SDS011;9487;50.892;6.906;2023-07-31T12:33:04;2.57;;;1.57;;
18716;SDS011;9487;50.892;6.906;2023-07-31T12:35:35;2.80;;;1.60;;
18716;SDS011;9487;50.892;6.906;2023-07-31T12:38:07;2.07;;;1.87;;
18716;SDS011;9487;50.892;6.906;2023-07-31T12:40:37;2.80;;;1.73;;
18716;SDS011;9487;50.892;6.906;2023-07-31T12:43:04;2.17;;;1.70;;
18716;SDS011;9487;50.892;6.906;2023-07-31T12:45:32;2.30;;;1.90;;
18716;SDS011;9487;50.892;6.906;2023-07-31T12:47:59;2.70;;;1.80;;
18716;SDS011;9487;50.892;6.906;2023-07-31T12:50:26;2.20;;;2.00;;
18716;SDS011;9487;50.892;6.906;2023-07-31T12:52:54;2.53;;;2.17;;
18716;SDS011;9487;50.892;6.906;2023-07-31T12:55:23;2.67;;;2.47;;
18716;SDS011;9487;50.892;6.906;2023-07-31T12:57:51;2.43;;;2.23;;
18716;SDS011;9487;50.892;6.906;2023-07-31T13:00:18;4.30;;;2.90;;
18716;SDS011;9487;50.892;6.906;2023-07-31T13:02:45;3.20;;;2.90;;
18716;SDS011;9487;50.892;6.906;2023-07-31T13:05:12;2.90;;;2.70;;
18716;SDS011;9487;50.892;6.906;2023-07-31T13:07:39;3.60;;;2.60;;
18716;SDS011;9487;50.892;6.906;2023-07-31T13:10:07;4.90;;;2.80;;
18716;SDS011;9487;50.892;6.906;2023-07-31T13:12:34;3.40;;;2.73;;
18716;SDS011;9487;50.892;6.906;2023-07-31T13:15:02;7.60;;;3.20;;
18716;SDS011;9487;50.892;6.906;2023-07-31T13:17:30;3.10;;;2.73;;
18716;SDS011;9487;50.892;6.906;2023-07-31T13:19:57;3.30;;;3.00;;
18716;SDS011;9487;50.892;6.906;2023-07-31T13:22:24;3.13;;;2.83;;
18716;SDS011;9487;50.892;6.906;2023-07-31T13:24:51;2.83;;;2.53;;
18716;SDS011;9487;50.892;6.906;2023-07-31T13:27:18;3.27;;;2.97;;
18716;SDS011;9487;50.892;6.906;2023-07-31T13:29:46;2.90;;;2.60;;
18716;SDS011;9487;50.892;6.906;2023-07-31T13:32:15;3.10;;;2.70;;
18716;SDS011;9487;50.892;6.906;2023-07-31T13:34:42;3.47;;;2.80;;
18716;SDS011;9487;50.892;6.906;2023-07-31T13:37:09;2.80;;;2.60;;
18716;SDS011;9487;50.892;6.906;2023-07-31T13:39:37;3.37;;;3.07;;
18716;SDS011;9487;50.892;6.906;2023-07-31T13:42:04;3.63;;;3.33;;
18716;SDS011;9487;50.892;6.906;2023-07-31T13:44:33;3.37;;;2.90;;
18716;SDS011;9487;50.892;6.906;2023-07-31T13:47:00;2.70;;;2.50;;
18716;SDS011;9487;50.892;6.906;2023-07-31T13:49:28;3.33;;;2.63;;
18716;SDS011;9487;50.892;6.906;2023-07-31T13:51:55;3.70;;;2.60;;
18716;SDS011;9487;50.892;6.906;2023-07-31T13:54:22;3.23;;;2.77;;
18716;SDS011;9487;50.892;6.906;2023-07-31T13:56:49;3.37;;;2.70;;
18716;SDS011;9487;50.892;6.906;2023-07-31T13:59:16;4.17;;;2.73;;
18716;SDS011;9487;50.892;6.906;2023-07-31T14:01:43;3.60;;;2.47;;
18716;SDS011;9487;50.892;6.906;2023-07-31T14:04:10;2.77;;;2.50;;
18716;SDS011;9487;50.892;6.906;2023-07-31T14:06:39;3.00;;;2.70;;
18716;SDS011;9487;50.892;6.906;2023-07-31T14:09:06;2.70;;;2.40;;
18716;SDS011;9487;50.892;6.906;2023-07-31T14:11:33;3.57;;;2.10;;
18716;SDS011;9487;50.892;6.906;2023-07-31T14:14:00;3.13;;;2.40;;
18716;SDS011;9487;50.892;6.906;2023-07-31T14:16:28;3.00;;;2.70;;
18716;SDS011;9487;50.892;6.906;2023-07-31T14:18:54;3.40;;;2.30;;
18716;SDS011;9487;50.892;6.906;2023-07-31T14:21:24;2.93;;;2.67;;
18716;SDS011;9487;50.892;6.906;2023-07-31T14:23:52;3.00;;;2.70;;
18716;SDS011;9487;50.892;6.906;2023-07-31T14:26:19;4.83;;;3.00;;
18716;SDS011;9487;50.892;6.906;2023-07-31T14:28:46;3.23;;;2.80;;
18716;SDS011;9487;50.892;6.906;2023-07-31T14:31:13;3.57;;;3.07;;
18716;SDS011;9487;50.892;6.906;2023-07-31T14:33:39;2.97;;;2.67;;
18716;SDS011;9487;50.892;6.906;2023-07-31T14:36:06;3.33;;;2.73;;
18716;SDS011;9487;50.892;6.906;2023-07-31T14:38:33;3.53;;;2.63;;
18716;SDS011;9487;50.892;6.906;2023-07-31T14:41:01;2.73;;;2.53;;
18716;SDS011;9487;50.892;6.906;2023-07-31T14:43:28;3.10;;;2.80;;
18716;SDS011;9487;50.892;6.906;2023-07-31T14:45:55;3.23;;;2.93;;
18716;SDS011;9487;50.892;6.906;2023-07-31T14:48:24;3.13;;;2.70;;
18716;SDS011;9487;50.892;6.906;2023-07-31T14:50:51;3.27;;;2.97;;
18716;SDS011;9487;50.892;6.906;2023-07-31T14:53:18;3.87;;;3.00;;
18716;SDS011;9487;50.892;6.906;2023-07-31T14:55:45;4.50;;;3.00;;
18716;SDS011;9487;50.892;6.906;2023-07-31T14:58:13;3.00;;;2.70;;
18716;SDS011;9487;50.892;6.906;2023-07-31T15:00:42;3.13;;;2.83;;
18716;SDS011;9487;50.892;6.906;2023-07-31T15:03:09;3.43;;;2.87;;
18716;SDS011;9487;50.892;6.906;2023-07-31T15:05:35;3.30;;;3.00;;